createdAt,value
2019-04-03T00:00:24.371Z,2.89
2019-04-03T00:02:55.535Z,2.78
2019-04-03T00:05:26.635Z,2.76
2019-04-03T00:07:57.604Z,2.72
2019-04-03T00:10:28.661Z,2.73
2019-04-03T00:12:59.716Z,2.65
2019-04-03T00:15:30.633Z,2.62
2019-04-03T00:18:01.941Z,2.61
2019-04-03T00:20:32.854Z,2.60
2019-04-03T00:23:03.947Z,2.59
2019-04-03T00:25:34.948Z,2.55
2019-04-03T00:28:06.077Z,2.53
2019-04-03T00:30:38.051Z,2.52
2019-04-03T00:33:09.109Z,2.60
2019-04-03T00:35:40.160Z,2.64
2019-04-03T00:38:11.314Z,2.67
2019-04-03T00:40:42.197Z,2.71
2019-04-03T00:43:13.167Z,2.71
2019-04-03T00:45:44.087Z,2.63
2019-04-03T00:48:15.218Z,2.52
2019-04-03T00:50:46.141Z,2.31
2019-04-03T00:53:17.105Z,2.08
2019-04-03T00:55:48.093Z,1.97
2019-04-03T00:58:39.911Z,1.91
2019-04-03T01:01:12.044Z,2.01
2019-04-03T01:03:43.114Z,2.01
2019-04-03T01:06:13.988Z,2.10
2019-04-03T01:08:45.041Z,1.94
2019-04-03T01:11:17.143Z,1.97
2019-04-03T01:13:48.243Z,1.99
2019-04-03T01:16:19.212Z,1.91
2019-04-03T01:18:50.280Z,1.90
2019-04-03T01:21:21.259Z,1.85
2019-04-03T01:23:52.386Z,1.89
2019-04-03T01:26:23.362Z,1.84
2019-04-03T01:28:54.378Z,1.80
2019-04-03T01:31:25.361Z,1.69
2019-04-03T01:33:56.313Z,1.70
2019-04-03T01:36:27.304Z,1.71
2019-04-03T01:38:58.354Z,1.53
2019-04-03T01:41:29.286Z,1.47
2019-04-03T01:44:01.431Z,1.64
2019-04-03T01:46:32.380Z,1.58
2019-04-03T01:49:03.380Z,1.48
2019-04-03T01:51:34.235Z,1.57
2019-04-03T01:54:05.358Z,1.59
2019-04-03T01:56:36.422Z,1.57
2019-04-03T01:59:07.506Z,1.62
2019-04-03T02:01:39.232Z,1.46
2019-04-03T02:04:13.015Z,1.52
2019-04-03T02:06:44.351Z,1.54
2019-04-03T02:09:16.062Z,1.56
2019-04-03T02:11:47.630Z,1.57
2019-04-03T02:14:21.586Z,1.54
2019-04-03T02:16:53.499Z,1.46
2019-04-03T02:19:26.101Z,1.53
2019-04-03T02:21:58.511Z,1.53
2019-04-03T02:24:31.815Z,1.52
2019-04-03T02:27:03.492Z,1.47
2019-04-03T02:29:34.539Z,1.46
2019-04-03T02:32:05.438Z,1.43
2019-04-03T02:34:37.711Z,1.38
2019-04-03T02:37:08.808Z,1.36
2019-04-03T02:39:40.137Z,1.39
2019-04-03T02:42:11.117Z,1.28
2019-04-03T02:44:42.022Z,1.21
2019-04-03T02:47:13.011Z,1.30
2019-04-03T02:49:44.089Z,1.23
2019-04-03T02:52:14.966Z,1.25
2019-04-03T02:54:46.046Z,1.20
2019-04-03T02:57:18.184Z,1.17
2019-04-03T02:59:49.842Z,1.21
2019-04-03T03:02:21.739Z,1.11
2019-04-03T03:04:54.667Z,1.06
2019-04-03T03:07:25.698Z,1.05
2019-04-03T03:09:56.985Z,1.08
2019-04-03T03:12:28.740Z,1.15
2019-04-03T03:14:59.814Z,1.11
2019-04-03T03:17:30.732Z,1.13
2019-04-03T03:20:06.547Z,1.19
2019-04-03T03:22:37.909Z,1.16
2019-04-03T03:25:09.355Z,1.17
2019-04-03T03:27:42.083Z,1.27
2019-04-03T03:30:33.211Z,1.29
2019-04-03T03:32:46.057Z,1.23
2019-04-03T03:35:25.982Z,1.15
2019-04-03T03:37:50.817Z,1.15
2019-04-03T03:40:21.709Z,1.09
2019-04-03T03:42:52.642Z,0.99
2019-04-03T03:45:23.682Z,0.94
2019-04-03T03:47:54.660Z,1.04
2019-04-03T03:50:25.929Z,1.06
2019-04-03T03:52:57.199Z,1.03
2019-04-03T03:55:28.654Z,1.08
2019-04-03T03:57:59.932Z,1.01
2019-04-03T04:00:30.944Z,1.05
2019-04-03T04:03:02.987Z,1.04
2019-04-03T04:05:34.352Z,1.02
2019-04-03T04:08:09.353Z,0.98
2019-04-03T04:10:37.999Z,1.04
2019-04-03T04:13:13.608Z,1.04
2019-04-03T04:15:41.669Z,1.03
2019-04-03T04:18:15.031Z,0.99
2019-04-03T04:20:45.776Z,0.91
2019-04-03T04:23:16.896Z,0.96
2019-04-03T04:25:47.842Z,1.00
2019-04-03T04:28:19.288Z,1.18
2019-04-03T04:30:50.473Z,1.29
2019-04-03T04:33:21.390Z,1.43
2019-04-03T04:35:52.973Z,1.46
2019-04-03T04:38:24.822Z,1.52
2019-04-03T04:40:56.969Z,1.61
2019-04-03T04:43:29.015Z,1.74
2019-04-03T04:46:01.076Z,1.80
2019-04-03T04:48:32.200Z,1.91
2019-04-03T04:51:03.218Z,1.93
2019-04-03T04:53:34.199Z,2.01
2019-04-03T04:56:06.502Z,2.26
2019-04-03T04:58:38.292Z,2.44
2019-04-03T05:01:09.163Z,2.64
2019-04-03T05:03:41.150Z,2.76
2019-04-03T05:06:12.225Z,2.86
2019-04-03T05:08:43.163Z,2.93
2019-04-03T05:11:14.184Z,3.07
2019-04-03T05:13:46.876Z,3.19
2019-04-03T05:16:20.173Z,3.24
2019-04-03T05:18:50.534Z,3.37
2019-04-03T05:21:22.305Z,3.51
2019-04-03T05:23:55.686Z,3.65
2019-04-03T05:26:26.320Z,3.76
2019-04-03T05:28:57.813Z,4.31
2019-04-03T05:31:32.153Z,4.60
2019-04-03T05:34:03.064Z,4.59
2019-04-03T05:36:34.127Z,4.83
2019-04-03T05:39:07.344Z,4.81
2019-04-03T05:41:38.363Z,4.82
2019-04-03T05:44:12.153Z,4.60
2019-04-03T05:46:43.191Z,4.82
2019-04-03T05:49:14.314Z,5.16
2019-04-03T05:51:45.502Z,5.10
2019-04-03T05:54:16.419Z,5.27
2019-04-03T05:56:47.650Z,5.41
2019-04-03T05:59:19.246Z,5.39
2019-04-03T06:01:50.218Z,5.70
2019-04-03T06:04:22.025Z,5.72
2019-04-03T06:06:53.067Z,5.60
2019-04-03T06:09:24.009Z,5.82
2019-04-03T06:11:54.959Z,5.91
2019-04-03T06:14:25.918Z,5.93
2019-04-03T06:16:57.281Z,5.92
2019-04-03T06:19:28.354Z,6.17
2019-04-03T06:21:59.404Z,6.26
2019-04-03T06:24:30.353Z,6.40
2019-04-03T06:27:01.309Z,6.62
2019-04-03T06:29:32.449Z,6.71
2019-04-03T06:32:05.779Z,6.76
2019-04-03T06:34:38.389Z,6.91
2019-04-03T06:37:09.145Z,7.10
2019-04-03T06:39:40.167Z,7.18
2019-04-03T06:42:13.017Z,7.51
2019-04-03T06:44:45.510Z,7.63
2019-04-03T06:47:16.577Z,7.73
2019-04-03T06:49:47.562Z,7.65
2019-04-03T06:52:20.957Z,7.76
2019-04-03T06:54:51.124Z,7.79
2019-04-03T06:57:22.080Z,7.98
2019-04-03T06:59:53.413Z,7.99
2019-04-03T07:02:27.289Z,8.20
2019-04-03T07:04:57.952Z,8.38
2019-04-03T07:07:34.198Z,8.40
2019-04-03T07:10:03.752Z,8.66
2019-04-03T07:12:34.386Z,8.79
2019-04-03T07:15:06.902Z,8.78
2019-04-03T07:17:38.161Z,8.54
2019-04-03T07:20:14.492Z,8.55
2019-04-03T07:22:41.988Z,8.81
2019-04-03T07:25:12.805Z,9.09
2019-04-03T07:27:43.907Z,8.87
2019-04-03T07:30:16.959Z,9.00
2019-04-03T07:32:48.076Z,9.03
2019-04-03T07:35:18.983Z,9.07
2019-04-03T07:37:51.054Z,9.47
2019-04-03T07:40:22.376Z,9.47
2019-04-03T07:42:56.285Z,9.51
2019-04-03T07:45:26.900Z,9.24
2019-04-03T07:47:57.928Z,9.51
2019-04-03T07:50:28.670Z,9.44
2019-04-03T07:52:59.760Z,9.22
2019-04-03T07:55:30.733Z,9.50
2019-04-03T07:58:01.898Z,9.75
2019-04-03T08:00:32.790Z,9.68
2019-04-03T08:03:03.736Z,9.68
2019-04-03T08:05:35.562Z,9.86
2019-04-03T08:08:06.844Z,9.74
2019-04-03T08:10:37.937Z,10.15
2019-04-03T08:13:09.283Z,10.23
2019-04-03T08:15:40.204Z,10.23
2019-04-03T08:18:11.208Z,9.82
2019-04-03T08:20:42.087Z,9.52
2019-04-03T08:23:13.237Z,9.42
2019-04-03T08:25:47.182Z,10.03
2019-04-03T08:28:17.001Z,10.54
2019-04-03T08:30:48.014Z,10.42
2019-04-03T08:33:25.279Z,10.30
2019-04-03T08:35:51.892Z,10.12
2019-04-03T08:38:22.902Z,10.28
2019-04-03T08:40:53.834Z,10.55
2019-04-03T08:43:24.740Z,10.35
2019-04-03T08:45:55.745Z,9.83
2019-04-03T08:48:26.595Z,9.98
2019-04-03T08:50:58.417Z,10.44
2019-04-03T08:53:30.211Z,10.10
2019-04-03T08:56:01.469Z,10.24
2019-04-03T08:58:32.678Z,9.89
2019-04-03T09:01:04.849Z,9.98
2019-04-03T09:03:36.602Z,9.86
2019-04-03T09:06:08.377Z,10.12
2019-04-03T09:08:39.482Z,10.52
2019-04-03T09:11:10.813Z,10.56
2019-04-03T09:13:41.737Z,10.68
2019-04-03T09:16:12.766Z,10.68
2019-04-03T09:18:43.695Z,10.89
2019-04-03T09:21:15.577Z,11.14
2019-04-03T09:23:47.118Z,11.32
2019-04-03T09:26:18.011Z,11.13
2019-04-03T09:28:49.185Z,11.62
2019-04-03T09:31:20.771Z,11.29
2019-04-03T09:33:51.760Z,11.35
2019-04-03T09:36:22.588Z,11.51
2019-04-03T09:38:53.410Z,10.99
2019-04-03T09:41:24.328Z,11.10
2019-04-03T09:43:55.561Z,11.32
2019-04-03T09:46:26.834Z,11.73
2019-04-03T09:48:59.386Z,11.64
2019-04-03T09:51:30.575Z,11.61
2019-04-03T09:54:01.626Z,11.75
2019-04-03T09:56:32.642Z,11.40
2019-04-03T09:59:04.457Z,11.95
2019-04-03T10:01:36.343Z,11.65
2019-04-03T10:04:07.335Z,11.75
2019-04-03T10:06:39.520Z,11.84
2019-04-03T10:09:12.019Z,11.73
2019-04-03T10:11:43.402Z,11.86
2019-04-03T10:14:15.430Z,12.04
2019-04-03T10:16:46.517Z,11.77
2019-04-03T10:19:17.465Z,12.04
2019-04-03T10:21:50.060Z,11.88
2019-04-03T10:24:21.138Z,11.22
2019-04-03T10:26:51.987Z,11.80
2019-04-03T10:29:24.098Z,11.81
2019-04-03T10:31:56.051Z,11.56
2019-04-03T10:34:28.345Z,12.01
2019-04-03T10:36:59.403Z,12.16
2019-04-03T10:39:30.452Z,12.11
2019-04-03T10:42:01.724Z,12.21
2019-04-03T10:44:33.204Z,12.10
2019-04-03T10:47:04.163Z,12.09
2019-04-03T10:49:35.067Z,12.01
2019-04-03T10:52:06.300Z,12.17
2019-04-03T10:54:38.483Z,12.16
2019-04-03T10:57:09.709Z,12.59
2019-04-03T10:59:40.722Z,12.33
2019-04-03T11:02:11.985Z,12.28
2019-04-03T11:04:44.166Z,11.95
2019-04-03T11:07:15.977Z,11.99
2019-04-03T11:09:47.070Z,12.24
2019-04-03T11:12:19.090Z,11.99
2019-04-03T11:14:50.386Z,11.91
2019-04-03T11:17:21.526Z,12.36
2019-04-03T11:19:52.763Z,11.83
2019-04-03T11:22:23.720Z,11.88
2019-04-03T11:24:55.186Z,12.10
2019-04-03T11:27:40.851Z,11.87
2019-04-03T11:29:59.035Z,12.13
2019-04-03T11:32:30.011Z,11.74
2019-04-03T11:35:02.036Z,11.74
2019-04-03T11:37:33.831Z,11.97
2019-04-03T11:40:07.355Z,12.12
2019-04-03T11:42:38.328Z,12.19
2019-04-03T11:45:09.299Z,11.97
2019-04-03T11:47:40.410Z,12.25
2019-04-03T11:50:11.309Z,12.38
2019-04-03T11:52:42.402Z,12.54
2019-04-03T11:55:13.463Z,12.86
2019-04-03T11:57:47.427Z,12.61
2019-04-03T12:00:24.587Z,12.66
2019-04-03T12:02:55.739Z,12.65
2019-04-03T12:05:27.075Z,11.85
2019-04-03T12:07:58.956Z,11.78
2019-04-03T12:10:30.011Z,11.64
2019-04-03T12:13:03.626Z,11.86
2019-04-03T12:15:34.738Z,12.03
2019-04-03T12:18:06.436Z,12.25
2019-04-03T12:20:41.190Z,12.48
2019-04-03T12:23:10.286Z,12.57
2019-04-03T12:25:41.473Z,12.07
2019-04-03T12:28:12.606Z,12.26
2019-04-03T12:30:43.706Z,12.14
2019-04-03T12:33:14.683Z,12.21
2019-04-03T12:35:46.222Z,12.49
2019-04-03T12:38:17.258Z,12.65
2019-04-03T12:40:48.245Z,12.45
2019-04-03T12:43:20.283Z,12.61
2019-04-03T12:45:51.248Z,12.14
2019-04-03T12:48:22.225Z,12.25
2019-04-03T12:50:54.779Z,12.35
2019-04-03T12:53:25.956Z,12.44
2019-04-03T12:55:58.306Z,12.53
2019-04-03T12:58:45.721Z,12.62
2019-04-03T13:01:17.683Z,12.69
2019-04-03T13:03:49.483Z,12.68
2019-04-03T13:06:20.445Z,12.17
2019-04-03T13:08:52.740Z,12.31
2019-04-03T13:11:24.337Z,12.23
2019-04-03T13:13:55.450Z,12.38
2019-04-03T13:16:26.776Z,12.35
2019-04-03T13:18:57.775Z,12.39
2019-04-03T13:21:28.877Z,12.15
2019-04-03T13:23:59.926Z,12.00
2019-04-03T13:26:31.039Z,12.11
2019-04-03T13:29:02.264Z,12.19
2019-04-03T13:31:33.390Z,12.21
2019-04-03T13:34:04.497Z,12.03
2019-04-03T13:36:35.711Z,11.89
2019-04-03T13:39:07.568Z,11.47
2019-04-03T13:41:39.942Z,11.52
2019-04-03T13:44:11.330Z,11.64
2019-04-03T13:46:42.433Z,11.88
2019-04-03T13:49:15.177Z,12.04
2019-04-03T13:51:46.476Z,11.99
2019-04-03T13:54:17.217Z,12.10
2019-04-03T13:56:48.131Z,12.19
2019-04-03T13:59:19.150Z,11.93
2019-04-03T14:01:50.154Z,11.80
2019-04-03T14:04:22.860Z,11.64
2019-04-03T14:06:53.745Z,11.92
2019-04-03T14:09:25.572Z,12.00
2019-04-03T14:11:56.873Z,12.14
2019-04-03T14:14:27.787Z,12.16
2019-04-03T14:16:58.801Z,12.02
2019-04-03T14:19:41.499Z,12.00
2019-04-03T14:22:03.470Z,12.26
2019-04-03T14:24:41.436Z,12.22
2019-04-03T14:27:17.436Z,11.87
2019-04-03T14:29:39.797Z,11.97
2019-04-03T14:32:13.572Z,12.15
2019-04-03T14:34:43.416Z,12.33
2019-04-03T14:37:14.396Z,12.10
2019-04-03T14:39:45.417Z,11.91
2019-04-03T14:42:16.390Z,12.08
2019-04-03T14:44:47.505Z,12.45
2019-04-03T14:47:20.149Z,12.35
2019-04-03T14:49:51.139Z,12.49
2019-04-03T14:52:22.218Z,12.24
2019-04-03T14:54:53.975Z,12.59
2019-04-03T14:57:29.602Z,12.85
2019-04-03T15:00:05.094Z,13.03
2019-04-03T15:02:34.850Z,13.11
2019-04-03T15:05:07.419Z,13.02
2019-04-03T15:07:39.123Z,13.32
2019-04-03T15:10:10.872Z,13.48
2019-04-03T15:12:42.260Z,13.26
2019-04-03T15:15:13.219Z,13.29
2019-04-03T15:17:44.471Z,13.36
2019-04-03T15:20:17.929Z,13.52
2019-04-03T15:22:48.371Z,13.23
2019-04-03T15:25:20.688Z,12.42
2019-04-03T15:27:51.830Z,11.83
2019-04-03T15:30:24.915Z,11.66
2019-04-03T15:32:55.871Z,11.48
2019-04-03T15:35:26.916Z,11.39
2019-04-03T15:37:58.230Z,11.18
2019-04-03T15:40:29.825Z,11.15
2019-04-03T15:43:01.464Z,11.04
2019-04-03T15:45:32.475Z,11.01
2019-04-03T15:48:03.645Z,10.87
2019-04-03T15:50:37.710Z,10.79
2019-04-03T15:53:07.399Z,10.73
2019-04-03T15:55:39.455Z,10.67
2019-04-03T15:58:10.597Z,10.50
2019-04-03T16:00:42.856Z,10.91
2019-04-03T16:03:17.684Z,11.09
2019-04-03T16:05:48.120Z,10.79
2019-04-03T16:08:19.678Z,10.56
2019-04-03T16:10:51.692Z,10.42
2019-04-03T16:13:22.783Z,10.35
2019-04-03T16:15:56.212Z,10.28
2019-04-03T16:18:26.540Z,10.13
2019-04-03T16:20:57.459Z,10.12
2019-04-03T16:23:28.589Z,9.99
2019-04-03T16:25:59.770Z,9.99
2019-04-03T16:28:33.392Z,9.90
2019-04-03T16:31:03.770Z,9.76
2019-04-03T16:33:35.804Z,9.70
2019-04-03T16:36:07.523Z,9.70
2019-04-03T16:38:38.468Z,9.71
2019-04-03T16:41:10.866Z,9.60
2019-04-03T16:43:42.413Z,9.56
2019-04-03T16:46:17.835Z,9.54
2019-04-03T16:48:49.932Z,9.49
2019-04-03T16:51:22.387Z,9.44
2019-04-03T16:53:54.353Z,9.45
2019-04-03T16:56:25.665Z,9.42
2019-04-03T16:58:59.585Z,9.32
2019-04-03T17:01:29.387Z,9.31
2019-04-03T17:04:02.880Z,9.30
2019-04-03T17:06:34.152Z,9.24
2019-04-03T17:09:07.885Z,9.19
2019-04-03T17:11:43.539Z,9.09
2019-04-03T17:14:14.814Z,9.01
2019-04-03T17:16:46.969Z,8.73
2019-04-03T17:19:18.842Z,8.61
2019-04-03T17:21:50.385Z,8.53
2019-04-03T17:24:21.484Z,8.43
2019-04-03T17:26:57.371Z,8.36
2019-04-03T17:29:24.973Z,8.35
2019-04-03T17:31:58.136Z,8.32
2019-04-03T17:34:29.058Z,8.28
2019-04-03T17:37:01.450Z,8.31
2019-04-03T17:39:33.912Z,8.34
2019-04-03T17:42:06.771Z,8.33
2019-04-03T17:44:38.404Z,8.25
2019-04-03T17:47:09.781Z,8.18
2019-04-03T17:49:40.842Z,8.17
2019-04-03T17:52:11.763Z,8.17
2019-04-03T17:54:42.708Z,8.19
2019-04-03T17:57:14.174Z,8.14
2019-04-03T17:59:46.981Z,8.08
2019-04-03T18:02:17.960Z,8.02
2019-04-03T18:04:51.170Z,7.97
2019-04-03T18:07:21.601Z,7.90
2019-04-03T18:09:52.529Z,7.91
2019-04-03T18:12:24.365Z,7.79
2019-04-03T18:14:55.731Z,7.83
2019-04-03T18:17:28.197Z,7.88
2019-04-03T18:19:59.329Z,7.85
2019-04-03T18:22:30.237Z,7.85
2019-04-03T18:25:01.327Z,7.79
2019-04-03T18:27:33.525Z,7.77
2019-04-03T18:30:11.823Z,7.70
2019-04-03T18:32:45.514Z,7.65
2019-04-03T18:35:15.077Z,7.52
2019-04-03T18:37:46.083Z,7.46
2019-04-03T18:40:16.992Z,7.46
2019-04-03T18:42:50.182Z,7.47
2019-04-03T18:45:25.470Z,7.44
2019-04-03T18:47:53.254Z,7.34
2019-04-03T18:50:24.363Z,7.33
2019-04-03T18:52:55.541Z,7.30
2019-04-03T18:55:26.666Z,7.22
2019-04-03T18:57:57.684Z,7.20
2019-04-03T19:00:30.447Z,7.14
2019-04-03T19:03:01.444Z,7.10
2019-04-03T19:05:32.588Z,7.22
2019-04-03T19:08:12.914Z,7.44
2019-04-03T19:10:36.335Z,7.37
2019-04-03T19:13:08.247Z,7.27
2019-04-03T19:15:39.322Z,7.21
2019-04-03T19:18:19.423Z,7.08
2019-04-03T19:20:43.067Z,6.93
2019-04-03T19:23:14.103Z,6.87
2019-04-03T19:25:45.864Z,6.92
2019-04-03T19:28:16.855Z,6.96
2019-04-03T19:30:47.884Z,7.00
2019-04-03T19:33:18.933Z,6.92
2019-04-03T19:35:49.957Z,6.88
2019-04-03T19:38:20.920Z,6.87
2019-04-03T19:40:51.937Z,6.93
2019-04-03T19:43:22.965Z,6.81
2019-04-03T19:45:53.996Z,6.76
2019-04-03T19:48:25.645Z,6.68
2019-04-03T19:50:57.347Z,6.69
2019-04-03T19:53:28.371Z,6.69
2019-04-03T19:55:59.465Z,6.53
2019-04-03T19:58:30.398Z,6.48
2019-04-03T20:01:03.597Z,6.50
2019-04-03T20:03:34.285Z,6.44
2019-04-03T20:06:06.279Z,6.38
2019-04-03T20:08:37.364Z,6.40
2019-04-03T20:11:08.464Z,6.27
2019-04-03T20:13:40.442Z,6.25
2019-04-03T20:16:11.537Z,6.19
2019-04-03T20:18:42.478Z,6.11
2019-04-03T20:21:15.241Z,6.07
2019-04-03T20:23:48.515Z,6.00
2019-04-03T20:26:20.381Z,5.94
2019-04-03T20:28:51.277Z,5.92
2019-04-03T20:31:22.247Z,5.89
2019-04-03T20:33:53.294Z,5.78
2019-04-03T20:36:24.291Z,5.65
2019-04-03T20:38:55.942Z,5.59
2019-04-03T20:41:28.093Z,5.54
2019-04-03T20:43:59.061Z,5.56
2019-04-03T20:46:30.193Z,5.52
2019-04-03T20:49:03.152Z,5.54
2019-04-03T20:51:35.481Z,5.52
2019-04-03T20:54:06.710Z,5.52
2019-04-03T20:56:37.883Z,5.57
2019-04-03T20:59:11.149Z,5.55
2019-04-03T21:01:41.636Z,5.42
2019-04-03T21:04:12.985Z,5.28
2019-04-03T21:06:45.257Z,5.24
2019-04-03T21:09:16.366Z,5.18
2019-04-03T21:11:47.306Z,5.20
2019-04-03T21:14:19.414Z,5.15
2019-04-03T21:16:50.470Z,5.03
2019-04-03T21:19:22.008Z,5.03
2019-04-03T21:21:54.403Z,4.96
2019-04-03T21:24:25.313Z,4.98
2019-04-03T21:26:56.386Z,4.97
2019-04-03T21:29:27.299Z,4.93
2019-04-03T21:31:58.374Z,4.87
2019-04-03T21:34:31.009Z,4.79
2019-04-03T21:37:02.041Z,4.80
2019-04-03T21:39:33.873Z,4.76
2019-04-03T21:42:05.122Z,4.66
2019-04-03T21:44:36.026Z,4.53
2019-04-03T21:47:06.949Z,4.51
2019-04-03T21:49:37.932Z,4.48
2019-04-03T21:52:08.859Z,4.42
2019-04-03T21:54:39.731Z,4.41
2019-04-03T21:57:10.706Z,4.40
2019-04-03T21:59:42.239Z,4.37
2019-04-03T22:02:14.022Z,4.40
2019-04-03T22:04:46.052Z,4.38
2019-04-03T22:07:17.131Z,4.36
2019-04-03T22:09:48.109Z,4.37
2019-04-03T22:12:19.111Z,4.29
2019-04-03T22:14:50.864Z,4.17
2019-04-03T22:17:22.462Z,4.05
2019-04-03T22:19:53.481Z,4.02
2019-04-03T22:22:24.699Z,3.90
2019-04-03T22:24:55.625Z,3.84
2019-04-03T22:27:26.557Z,3.80
2019-04-03T22:29:57.501Z,3.89
2019-04-03T22:32:28.416Z,3.92
2019-04-03T22:35:00.933Z,3.84
2019-04-03T22:37:33.248Z,3.82
2019-04-03T22:40:05.803Z,3.82
2019-04-03T22:42:36.722Z,3.82
2019-04-03T22:45:07.699Z,3.78
2019-04-03T22:47:38.639Z,3.81
2019-04-03T22:50:10.008Z,3.78
2019-04-03T22:52:41.048Z,3.79
2019-04-03T22:55:12.978Z,3.70
2019-04-03T22:57:45.573Z,3.69
2019-04-03T23:00:16.506Z,3.58
2019-04-03T23:02:47.524Z,3.52
2019-04-03T23:05:18.518Z,3.53
2019-04-03T23:07:52.043Z,3.42
2019-04-03T23:10:23.672Z,3.42
2019-04-03T23:12:56.226Z,3.40
2019-04-03T23:15:28.139Z,3.42
2019-04-03T23:17:59.299Z,3.47
2019-04-03T23:20:30.217Z,3.36
2019-04-03T23:23:01.203Z,3.39
2019-04-03T23:25:32.088Z,3.33
2019-04-03T23:28:03.680Z,3.11
2019-04-03T23:30:34.808Z,3.04
2019-04-03T23:33:05.747Z,3.08
2019-04-03T23:35:36.640Z,3.07
2019-04-03T23:38:07.661Z,3.08
2019-04-03T23:40:38.532Z,3.12
2019-04-03T23:43:09.505Z,3.08
2019-04-03T23:45:43.572Z,3.09
2019-04-03T23:48:13.321Z,3.03
2019-04-03T23:50:44.384Z,3.02
2019-04-03T23:53:15.385Z,2.90
2019-04-03T23:55:46.288Z,2.90
2019-04-03T23:58:17.244Z,2.93
